createdAt,value
2019-02-20T00:00:47.893Z,4.08
2019-02-20T00:01:59.033Z,4.08
2019-02-20T00:03:09.680Z,4.08
2019-02-20T00:04:20.823Z,4.08
2019-02-20T00:05:31.632Z,4.08
2019-02-20T00:06:42.779Z,4.08
2019-02-20T00:07:53.925Z,4.08
2019-02-20T00:09:05.079Z,4.08
2019-02-20T00:10:16.239Z,4.08
2019-02-20T00:11:26.891Z,4.08
2019-02-20T00:12:38.034Z,4.08
2019-02-20T00:13:49.167Z,4.08
2019-02-20T00:15:00.335Z,4.08
2019-02-20T00:16:11.468Z,4.08
2019-02-20T00:17:22.118Z,4.08
2019-02-20T00:18:33.256Z,4.08
2019-02-20T00:19:44.400Z,4.08
2019-02-20T00:20:55.547Z,4.08
2019-02-20T00:22:06.690Z,4.07
2019-02-20T00:23:17.842Z,4.08
2019-02-20T00:24:28.635Z,4.08
2019-02-20T00:25:39.792Z,4.08
2019-02-20T00:26:50.928Z,4.08
2019-02-20T00:28:02.067Z,4.08
2019-02-20T00:29:14.216Z,4.08
2019-02-20T00:30:25.334Z,4.07
2019-02-20T00:31:36.654Z,4.08
2019-02-20T00:32:47.782Z,4.08
2019-02-20T00:33:58.926Z,4.08
2019-02-20T00:35:10.072Z,4.08
2019-02-20T00:36:20.727Z,4.08
2019-02-20T00:37:31.857Z,4.08
2019-02-20T00:38:42.997Z,4.08
2019-02-20T00:39:54.133Z,4.08
2019-02-20T00:41:05.278Z,4.08
2019-02-20T00:42:15.922Z,4.07
2019-02-20T00:43:26.564Z,4.07
2019-02-20T00:44:37.698Z,4.07
2019-02-20T00:45:48.839Z,4.08
2019-02-20T00:46:59.978Z,4.08
2019-02-20T00:48:11.111Z,4.07
2019-02-20T00:49:22.262Z,4.08
2019-02-20T00:50:32.906Z,4.07
2019-02-20T00:51:44.055Z,4.08
2019-02-20T00:52:55.185Z,4.07
2019-02-20T00:54:06.333Z,4.07
2019-02-20T00:55:17.477Z,4.08
2019-02-20T00:56:28.625Z,4.07
2019-02-20T00:57:39.774Z,4.08
2019-02-20T00:58:50.747Z,4.07
2019-02-20T01:00:01.889Z,4.07
2019-02-20T01:01:13.032Z,4.07
2019-02-20T01:02:24.186Z,4.07
2019-02-20T01:03:35.331Z,4.07
2019-02-20T01:04:46.631Z,4.08
2019-02-20T01:05:57.280Z,4.08
2019-02-20T01:07:08.429Z,4.07
2019-02-20T01:08:19.557Z,4.07
2019-02-20T01:09:30.687Z,4.07
2019-02-20T01:10:41.821Z,4.07
2019-02-20T01:11:52.964Z,4.07
2019-02-20T01:13:04.112Z,4.07
2019-02-20T01:14:14.759Z,4.07
2019-02-20T01:15:25.940Z,4.08
2019-02-20T01:16:37.025Z,4.08
2019-02-20T01:17:48.162Z,4.07
2019-02-20T01:18:59.299Z,4.07
2019-02-20T01:20:09.938Z,4.07
2019-02-20T01:21:21.070Z,4.07
2019-02-20T01:22:32.216Z,4.07
2019-02-20T01:23:43.364Z,4.07
2019-02-20T01:24:54.630Z,4.07
2019-02-20T01:26:05.268Z,4.07
2019-02-20T01:27:15.903Z,4.07
2019-02-20T01:28:27.049Z,4.07
2019-02-20T01:29:37.694Z,4.07
2019-02-20T01:30:48.825Z,4.07
2019-02-20T01:31:59.954Z,4.07
2019-02-20T01:33:10.597Z,4.07
2019-02-20T01:34:21.241Z,4.07
2019-02-20T01:35:31.891Z,4.07
2019-02-20T01:36:43.030Z,4.07
2019-02-20T01:37:54.175Z,4.07
2019-02-20T01:39:05.314Z,4.07
2019-02-20T01:40:16.461Z,4.07
2019-02-20T01:41:27.591Z,4.07
2019-02-20T01:42:38.725Z,4.07
2019-02-20T01:43:49.872Z,4.07
2019-02-20T01:45:01.003Z,4.07
2019-02-20T01:46:12.131Z,4.07
2019-02-20T01:47:23.269Z,4.07
2019-02-20T01:48:34.406Z,4.07
2019-02-20T01:49:45.555Z,4.07
2019-02-20T01:50:56.687Z,4.07
2019-02-20T01:52:07.825Z,4.07
2019-02-20T01:53:19.956Z,4.07
2019-02-20T01:54:31.111Z,4.07
2019-02-20T01:55:42.231Z,4.07
2019-02-20T01:56:53.368Z,4.07
2019-02-20T01:58:04.506Z,4.07
2019-02-20T01:59:15.654Z,4.07
2019-02-20T02:00:26.776Z,4.07
2019-02-20T02:01:37.409Z,4.07
2019-02-20T02:02:48.626Z,4.07
2019-02-20T02:03:59.772Z,4.07
2019-02-20T02:05:15.477Z,4.07
2019-02-20T02:06:21.048Z,4.07
2019-02-20T02:07:32.185Z,4.07
2019-02-20T02:08:43.333Z,4.07
2019-02-20T02:09:53.975Z,4.07
2019-02-20T02:11:04.617Z,4.07
2019-02-20T02:12:15.742Z,4.07
2019-02-20T02:13:26.376Z,4.07
2019-02-20T02:14:37.515Z,4.07
2019-02-20T02:15:48.661Z,4.07
2019-02-20T02:16:59.789Z,4.07
2019-02-20T02:18:10.922Z,4.07
2019-02-20T02:19:22.058Z,4.07
2019-02-20T02:20:33.185Z,4.07
2019-02-20T02:21:43.825Z,4.07
2019-02-20T02:22:54.955Z,4.07
2019-02-20T02:24:06.077Z,4.07
2019-02-20T02:25:17.216Z,4.07
2019-02-20T02:26:28.350Z,4.07
2019-02-20T02:27:39.476Z,4.07
2019-02-20T02:28:51.602Z,4.07
2019-02-20T02:30:02.739Z,4.07
2019-02-20T02:31:13.928Z,4.07
2019-02-20T02:32:24.995Z,4.07
2019-02-20T02:33:36.124Z,4.07
2019-02-20T02:34:46.765Z,4.06
2019-02-20T02:35:57.898Z,4.07
2019-02-20T02:37:09.033Z,4.07
2019-02-20T02:38:20.160Z,4.07
2019-02-20T02:39:31.278Z,4.07
2019-02-20T02:40:42.416Z,4.06
2019-02-20T02:41:53.548Z,4.06
2019-02-20T02:43:04.169Z,4.06
2019-02-20T02:44:15.300Z,4.06
2019-02-20T02:45:26.441Z,4.06
2019-02-20T02:46:37.563Z,4.06
2019-02-20T02:47:48.695Z,4.06
2019-02-20T02:48:59.813Z,4.06
2019-02-20T02:50:10.947Z,4.06
2019-02-20T02:51:22.076Z,4.06
2019-02-20T02:52:33.202Z,4.07
2019-02-20T02:53:44.331Z,4.06
2019-02-20T02:54:54.962Z,4.07
2019-02-20T02:56:05.603Z,4.06
2019-02-20T02:57:16.754Z,4.07
2019-02-20T02:58:27.887Z,4.07
2019-02-20T02:59:39.022Z,4.06
2019-02-20T03:00:50.155Z,4.06
2019-02-20T03:02:00.796Z,4.06
2019-02-20T03:03:11.915Z,4.06
2019-02-20T03:04:23.036Z,4.06
2019-02-20T03:05:34.185Z,4.06
2019-02-20T03:06:45.359Z,4.06
2019-02-20T03:07:56.449Z,4.06
2019-02-20T03:09:07.574Z,4.06
2019-02-20T03:10:18.204Z,4.06
2019-02-20T03:11:29.336Z,4.06
2019-02-20T03:12:40.615Z,4.06
2019-02-20T03:13:51.745Z,4.06
2019-02-20T03:15:02.874Z,4.06
2019-02-20T03:16:14.003Z,4.06
2019-02-20T03:17:24.646Z,4.06
2019-02-20T03:18:35.762Z,4.06
2019-02-20T03:19:46.895Z,4.06
2019-02-20T03:20:58.024Z,4.06
2019-02-20T03:22:09.161Z,4.06
2019-02-20T03:23:20.308Z,4.06
2019-02-20T03:24:30.928Z,4.06
2019-02-20T03:25:41.554Z,4.06
2019-02-20T03:26:52.701Z,4.06
2019-02-20T03:28:03.967Z,4.06
2019-02-20T03:29:15.099Z,4.06
2019-02-20T03:30:26.218Z,4.06
2019-02-20T03:31:37.345Z,4.06
2019-02-20T03:32:48.623Z,4.06
2019-02-20T03:33:59.770Z,4.06
2019-02-20T03:35:10.858Z,4.06
2019-02-20T03:36:23.393Z,4.06
2019-02-20T03:37:34.037Z,4.06
2019-02-20T03:38:45.163Z,4.06
2019-02-20T03:39:56.283Z,4.06
2019-02-20T03:41:07.409Z,4.06
2019-02-20T03:42:18.625Z,4.06
2019-02-20T03:43:29.749Z,4.06
2019-02-20T03:44:40.879Z,4.06
2019-02-20T03:45:52.009Z,4.06
2019-02-20T03:47:03.136Z,4.06
2019-02-20T03:48:14.258Z,4.06
2019-02-20T03:49:25.396Z,4.06
2019-02-20T03:50:36.501Z,4.06
2019-02-20T03:51:47.619Z,4.06
2019-02-20T03:52:58.745Z,4.06
2019-02-20T03:54:09.382Z,4.06
2019-02-20T03:55:20.621Z,4.06
2019-02-20T03:56:31.740Z,4.06
2019-02-20T03:57:42.859Z,4.06
2019-02-20T03:58:53.994Z,4.06
2019-02-20T04:00:05.115Z,4.06
2019-02-20T04:01:16.236Z,4.06
2019-02-20T04:02:27.374Z,4.06
2019-02-20T04:03:38.623Z,4.06
2019-02-20T04:04:49.747Z,4.06
2019-02-20T04:06:00.863Z,4.06
2019-02-20T04:07:11.991Z,4.06
2019-02-20T04:08:23.113Z,4.06
2019-02-20T04:09:33.749Z,4.06
2019-02-20T04:10:44.371Z,4.06
2019-02-20T04:11:54.993Z,4.06
2019-02-20T04:13:05.632Z,4.06
2019-02-20T04:14:16.761Z,4.06
2019-02-20T04:15:27.891Z,4.06
2019-02-20T04:16:39.021Z,4.06
2019-02-20T04:17:50.145Z,4.06
2019-02-20T04:19:01.278Z,4.06
2019-02-20T04:20:12.408Z,4.06
2019-02-20T04:21:23.530Z,4.06
2019-02-20T04:22:34.659Z,4.06
2019-02-20T04:23:45.785Z,4.06
2019-02-20T04:24:56.912Z,4.06
2019-02-20T04:26:09.856Z,4.06
2019-02-20T04:27:19.157Z,4.06
2019-02-20T04:28:30.284Z,4.06
2019-02-20T04:29:41.424Z,4.06
2019-02-20T04:30:52.620Z,4.06
2019-02-20T04:32:03.759Z,4.06
2019-02-20T04:33:14.877Z,4.06
2019-02-20T04:34:25.493Z,4.06
2019-02-20T04:35:36.613Z,4.06
2019-02-20T04:36:47.241Z,4.06
2019-02-20T04:37:57.863Z,4.06
2019-02-20T04:39:08.980Z,4.06
2019-02-20T04:40:20.112Z,4.06
2019-02-20T04:41:31.227Z,4.06
2019-02-20T04:42:43.341Z,4.06
2019-02-20T04:43:54.621Z,4.06
2019-02-20T04:45:05.749Z,4.06
2019-02-20T04:46:16.876Z,4.06
2019-02-20T04:47:27.979Z,4.06
2019-02-20T04:48:39.102Z,4.06
2019-02-20T04:49:50.220Z,4.06
2019-02-20T04:51:01.347Z,4.06
2019-02-20T04:52:12.666Z,4.06
2019-02-20T04:53:23.731Z,4.06
2019-02-20T04:54:34.854Z,4.06
2019-02-20T04:55:45.981Z,4.06
2019-02-20T04:56:57.105Z,4.06
2019-02-20T04:58:08.235Z,4.06
2019-02-20T04:59:19.365Z,4.06
2019-02-20T05:00:30.631Z,4.06
2019-02-20T05:01:41.757Z,4.06
2019-02-20T05:02:52.876Z,4.06
2019-02-20T05:04:04.996Z,4.06
2019-02-20T05:05:16.118Z,4.06
2019-02-20T05:06:27.252Z,4.06
2019-02-20T05:07:38.368Z,4.06
2019-02-20T05:08:49.000Z,4.06
2019-02-20T05:10:00.335Z,4.06
2019-02-20T05:11:11.262Z,4.06
2019-02-20T05:12:22.382Z,4.06
2019-02-20T05:13:33.497Z,4.06
2019-02-20T05:14:44.626Z,4.06
2019-02-20T05:15:55.830Z,4.06
2019-02-20T05:17:06.964Z,4.06
2019-02-20T05:18:18.078Z,4.06
2019-02-20T05:19:29.195Z,4.06
2019-02-20T05:20:40.314Z,4.06
2019-02-20T05:21:51.437Z,4.06
2019-02-20T05:23:02.642Z,4.06
2019-02-20T05:24:23.772Z,4.06
2019-02-20T05:25:24.400Z,4.06
2019-02-20T05:26:35.535Z,4.06
2019-02-20T05:27:46.690Z,4.06
2019-02-20T05:28:57.829Z,4.06
2019-02-20T05:30:09.947Z,4.06
2019-02-20T05:31:21.143Z,4.06
2019-02-20T05:32:32.195Z,4.06
2019-02-20T05:33:43.320Z,4.06
2019-02-20T05:34:54.430Z,4.06
2019-02-20T05:36:05.563Z,4.06
2019-02-20T05:37:16.688Z,4.06
2019-02-20T05:38:27.817Z,4.06
2019-02-20T05:39:38.937Z,4.06
2019-02-20T05:40:50.049Z,4.06
2019-02-20T05:42:00.705Z,4.06
2019-02-20T05:43:11.818Z,4.06
2019-02-20T05:44:22.928Z,4.06
2019-02-20T05:45:34.058Z,4.06
2019-02-20T05:46:45.179Z,4.06
2019-02-20T05:47:56.325Z,4.06
2019-02-20T05:49:07.444Z,4.06
2019-02-20T05:50:18.644Z,4.06
2019-02-20T05:51:29.727Z,4.06
2019-02-20T05:52:40.847Z,4.06
2019-02-20T05:53:51.465Z,4.06
2019-02-20T05:55:02.091Z,4.06
2019-02-20T05:56:12.706Z,4.06
2019-02-20T05:57:23.855Z,4.06
2019-02-20T05:58:34.980Z,4.06
2019-02-20T05:59:45.596Z,4.06
2019-02-20T06:00:56.720Z,4.06
2019-02-20T06:02:07.831Z,4.06
2019-02-20T06:03:19.965Z,4.06
2019-02-20T06:04:31.079Z,4.06
2019-02-20T06:05:41.700Z,4.06
2019-02-20T06:06:52.328Z,4.06
2019-02-20T06:08:03.464Z,4.06
2019-02-20T06:09:14.081Z,4.06
2019-02-20T06:10:24.708Z,4.06
2019-02-20T06:11:35.830Z,4.06
2019-02-20T06:12:46.968Z,4.06
2019-02-20T06:13:57.594Z,4.06
2019-02-20T06:15:08.717Z,4.06
2019-02-20T06:16:19.844Z,4.06
2019-02-20T06:17:30.672Z,4.06
2019-02-20T06:18:41.804Z,4.06
2019-02-20T06:19:52.914Z,4.06
2019-02-20T06:21:04.050Z,4.06
2019-02-20T06:22:14.671Z,4.06
2019-02-20T06:23:25.300Z,4.06
2019-02-20T06:24:43.859Z,4.06
2019-02-20T06:25:47.534Z,4.06
2019-02-20T06:26:58.157Z,4.06
2019-02-20T06:28:09.007Z,4.06
2019-02-20T06:29:19.632Z,4.06
2019-02-20T06:30:30.364Z,4.06
2019-02-20T06:31:41.478Z,4.06
2019-02-20T06:32:52.623Z,4.05
2019-02-20T06:34:03.742Z,4.06
2019-02-20T06:35:14.876Z,4.06
2019-02-20T06:36:25.999Z,4.06
2019-02-20T06:37:37.429Z,4.06
2019-02-20T06:38:48.620Z,4.06
2019-02-20T06:39:59.247Z,4.06
2019-02-20T06:41:10.361Z,4.06
2019-02-20T06:42:20.992Z,4.06
2019-02-20T06:43:32.122Z,4.06
2019-02-20T06:44:42.744Z,4.06
2019-02-20T06:45:53.870Z,4.06
2019-02-20T06:47:04.988Z,4.06
2019-02-20T06:48:15.616Z,4.06
2019-02-20T06:49:26.257Z,4.06
2019-02-20T06:50:36.889Z,4.06
2019-02-20T06:51:48.002Z,4.06
2019-02-20T06:52:59.135Z,4.06
2019-02-20T06:54:10.251Z,4.06
2019-02-20T06:55:21.383Z,4.06
2019-02-20T06:56:32.511Z,4.06
2019-02-20T06:57:43.650Z,4.06
2019-02-20T06:58:54.786Z,4.06
2019-02-20T07:00:05.929Z,4.06
2019-02-20T07:01:17.055Z,4.06
2019-02-20T07:02:27.693Z,4.06
2019-02-20T07:03:38.836Z,4.06
2019-02-20T07:04:49.963Z,4.06
2019-02-20T07:06:01.091Z,4.06
2019-02-20T07:07:12.219Z,4.06
2019-02-20T07:08:23.341Z,4.06
2019-02-20T07:09:34.477Z,4.06
2019-02-20T07:10:45.609Z,4.06
2019-02-20T07:11:56.731Z,4.06
2019-02-20T07:13:07.860Z,4.06
2019-02-20T07:14:18.997Z,4.06
2019-02-20T07:15:29.630Z,4.06
2019-02-20T07:16:40.751Z,4.06
2019-02-20T07:17:51.883Z,4.06
2019-02-20T07:19:02.521Z,4.06
2019-02-20T07:20:13.670Z,4.06
2019-02-20T07:21:24.802Z,4.06
2019-02-20T07:22:35.430Z,4.06
2019-02-20T07:23:46.072Z,4.06
2019-02-20T07:25:03.045Z,4.06
2019-02-20T07:26:07.855Z,4.06
2019-02-20T07:27:18.981Z,4.06
2019-02-20T07:28:29.637Z,4.06
2019-02-20T07:29:40.273Z,4.06
2019-02-20T07:30:51.405Z,4.06
2019-02-20T07:32:02.545Z,4.06
2019-02-20T07:33:14.658Z,4.06
2019-02-20T07:34:25.793Z,4.06
2019-02-20T07:35:36.937Z,4.06
2019-02-20T07:36:47.572Z,4.06
2019-02-20T07:37:58.695Z,4.06
2019-02-20T07:39:09.828Z,4.06
2019-02-20T07:40:20.973Z,4.06
2019-02-20T07:41:32.115Z,4.06
2019-02-20T07:42:43.241Z,4.06
2019-02-20T07:43:54.376Z,4.06
2019-02-20T07:45:05.618Z,4.06
2019-02-20T07:46:16.264Z,4.06
2019-02-20T07:47:27.400Z,4.06
2019-02-20T07:48:38.542Z,4.06
2019-02-20T07:49:49.180Z,4.06
2019-02-20T07:51:00.330Z,4.06
2019-02-20T07:52:11.641Z,4.06
2019-02-20T07:53:22.779Z,4.06
2019-02-20T07:54:33.919Z,4.06
2019-02-20T07:55:45.046Z,4.06
2019-02-20T07:56:56.192Z,4.06
2019-02-20T07:58:07.323Z,4.06
2019-02-20T07:59:18.462Z,4.06
2019-02-20T08:00:29.619Z,4.06
2019-02-20T08:01:40.768Z,4.06
2019-02-20T08:02:51.895Z,4.06
2019-02-20T08:04:03.028Z,4.06
2019-02-20T08:05:13.680Z,4.06
2019-02-20T08:06:24.815Z,4.06
2019-02-20T08:07:35.961Z,4.06
2019-02-20T08:08:47.089Z,4.06
2019-02-20T08:09:58.242Z,4.06
2019-02-20T08:11:09.382Z,4.06
2019-02-20T08:12:20.533Z,4.06
2019-02-20T08:13:39.143Z,4.06
2019-02-20T08:14:42.789Z,4.06
2019-02-20T08:15:53.951Z,4.06
2019-02-20T08:17:05.084Z,4.06
2019-02-20T08:18:16.227Z,4.06
2019-02-20T08:19:26.890Z,4.06
2019-02-20T08:20:38.033Z,4.06
2019-02-20T08:21:48.682Z,4.06
2019-02-20T08:22:59.822Z,4.06
2019-02-20T08:24:10.979Z,4.06
2019-02-20T08:25:23.101Z,4.06
2019-02-20T08:26:33.255Z,4.06
2019-02-20T08:27:44.398Z,4.06
2019-02-20T08:28:55.623Z,4.06
2019-02-20T08:30:06.758Z,4.06
2019-02-20T08:31:17.900Z,4.06
2019-02-20T08:32:29.039Z,4.06
2019-02-20T08:33:40.686Z,4.06
2019-02-20T08:34:51.835Z,4.06
2019-02-20T08:36:02.992Z,4.07
2019-02-20T08:37:14.131Z,4.07
2019-02-20T08:38:25.287Z,4.07
2019-02-20T08:39:35.933Z,4.06
2019-02-20T08:40:47.075Z,4.07
2019-02-20T08:41:58.217Z,4.07
2019-02-20T08:43:09.014Z,4.07
2019-02-20T08:44:20.158Z,4.06
2019-02-20T08:45:31.302Z,4.06
2019-02-20T08:46:42.460Z,4.07
2019-02-20T08:47:53.639Z,4.07
2019-02-20T08:49:04.306Z,4.07
2019-02-20T08:50:16.852Z,4.07
2019-02-20T08:51:26.826Z,4.07
2019-02-20T08:52:37.632Z,4.07
2019-02-20T08:53:48.809Z,4.07
2019-02-20T08:54:59.629Z,4.07
2019-02-20T08:56:10.765Z,4.07
2019-02-20T08:57:21.935Z,4.07
2019-02-20T08:58:32.599Z,4.07
2019-02-20T08:59:43.757Z,4.07
2019-02-20T09:00:54.925Z,4.07
2019-02-20T09:02:05.563Z,4.07
2019-02-20T09:03:16.732Z,4.07
2019-02-20T09:04:27.903Z,4.07
2019-02-20T09:05:39.058Z,4.08
2019-02-20T09:06:49.719Z,4.08
2019-02-20T09:08:00.872Z,4.08
2019-02-20T09:09:12.047Z,4.08
2019-02-20T09:10:23.205Z,4.08
2019-02-20T09:11:34.368Z,4.07
2019-02-20T09:12:45.617Z,4.08
2019-02-20T09:13:57.794Z,4.08
2019-02-20T09:15:08.959Z,4.08
2019-02-20T09:16:20.137Z,4.08
2019-02-20T09:17:31.308Z,4.08
2019-02-20T09:18:42.481Z,4.08
2019-02-20T09:19:53.685Z,4.08
2019-02-20T09:21:04.867Z,4.08
2019-02-20T09:22:16.036Z,4.08
2019-02-20T09:23:27.217Z,4.08
2019-02-20T09:24:38.413Z,4.08
2019-02-20T09:25:49.623Z,4.08
2019-02-20T09:27:00.796Z,4.08
2019-02-20T09:28:11.981Z,4.08
2019-02-20T09:29:23.170Z,4.08
2019-02-20T09:30:35.357Z,4.08
2019-02-20T09:31:46.545Z,4.08
2019-02-20T09:32:57.740Z,4.08
2019-02-20T09:34:08.931Z,4.08
2019-02-20T09:35:20.125Z,4.08
2019-02-20T09:36:31.311Z,4.08
2019-02-20T09:37:42.502Z,4.08
2019-02-20T09:38:53.693Z,4.08
2019-02-20T09:40:04.893Z,4.08
2019-02-20T09:41:16.075Z,4.08
2019-02-20T09:42:27.266Z,4.08
2019-02-20T09:43:38.462Z,4.08
2019-02-20T09:44:49.653Z,4.08
2019-02-20T09:46:00.847Z,4.08
2019-02-20T09:47:12.121Z,4.08
2019-02-20T09:48:23.322Z,4.08
2019-02-20T09:49:34.523Z,4.08
2019-02-20T09:50:47.671Z,4.08
2019-02-20T09:51:56.907Z,4.08
2019-02-20T09:53:08.108Z,4.08
2019-02-20T09:54:19.299Z,4.08
2019-02-20T09:55:30.508Z,4.08
2019-02-20T09:56:41.717Z,4.08
2019-02-20T09:57:52.906Z,4.08
2019-02-20T09:59:04.112Z,4.08
2019-02-20T10:00:15.340Z,4.09
2019-02-20T10:01:26.548Z,4.08
2019-02-20T10:02:37.751Z,4.09
2019-02-20T10:03:48.954Z,4.08
2019-02-20T10:05:00.284Z,4.08
2019-02-20T10:06:12.936Z,4.08
2019-02-20T10:07:22.584Z,4.08
2019-02-20T10:08:33.804Z,4.08
2019-02-20T10:09:45.008Z,4.08
2019-02-20T10:10:56.214Z,4.08
2019-02-20T10:12:07.419Z,4.08
2019-02-20T10:13:18.633Z,4.08
2019-02-20T10:14:29.825Z,4.08
2019-02-20T10:15:41.030Z,4.08
2019-02-20T10:16:52.252Z,4.08
2019-02-20T10:18:03.616Z,4.08
2019-02-20T10:19:14.837Z,4.08
2019-02-20T10:20:26.048Z,4.08
2019-02-20T10:21:37.274Z,4.08
2019-02-20T10:22:48.493Z,4.08
2019-02-20T10:23:59.704Z,4.08
2019-02-20T10:25:10.929Z,4.08
2019-02-20T10:26:22.137Z,4.08
2019-02-20T10:27:33.358Z,4.08
2019-02-20T10:28:44.576Z,4.09
2019-02-20T10:29:55.792Z,4.08
2019-02-20T10:31:07.028Z,4.08
2019-02-20T10:32:18.248Z,4.08
2019-02-20T10:33:29.456Z,4.08
2019-02-20T10:34:40.675Z,4.09
2019-02-20T10:35:51.885Z,4.09
2019-02-20T10:37:03.132Z,4.09
2019-02-20T10:38:14.338Z,4.09
2019-02-20T10:39:25.614Z,4.09
2019-02-20T10:40:36.838Z,4.09
2019-02-20T10:41:48.074Z,4.09
2019-02-20T10:42:59.292Z,4.09
2019-02-20T10:44:10.517Z,4.09
2019-02-20T10:45:21.742Z,4.09
2019-02-20T10:46:32.979Z,4.09
2019-02-20T10:47:44.224Z,4.09
2019-02-20T10:48:55.451Z,4.09
2019-02-20T10:50:06.687Z,4.09
2019-02-20T10:51:17.927Z,4.10
2019-02-20T10:52:29.167Z,4.10
2019-02-20T10:53:40.414Z,4.10
2019-02-20T10:54:57.593Z,4.09
2019-02-20T10:56:09.183Z,4.10
2019-02-20T10:57:14.155Z,4.10
2019-02-20T10:58:25.406Z,4.10
2019-02-20T10:59:36.662Z,4.09
2019-02-20T11:00:47.916Z,4.09
2019-02-20T11:01:59.165Z,4.09
2019-02-20T11:03:10.418Z,4.09
2019-02-20T11:04:21.678Z,4.09
2019-02-20T11:05:33.458Z,4.09
2019-02-20T11:06:44.199Z,4.09
2019-02-20T11:07:55.458Z,4.09
2019-02-20T11:09:06.713Z,4.09
2019-02-20T11:10:17.972Z,4.09
2019-02-20T11:11:29.236Z,4.10
2019-02-20T11:12:40.485Z,4.10
2019-02-20T11:13:51.756Z,4.10
2019-02-20T11:15:03.011Z,4.10
2019-02-20T11:16:14.264Z,4.10
2019-02-20T11:17:25.617Z,4.10
2019-02-20T11:18:36.889Z,4.10
2019-02-20T11:19:48.158Z,4.10
2019-02-20T11:20:59.429Z,4.10
2019-02-20T11:22:10.701Z,4.10
2019-02-20T11:23:21.969Z,4.10
2019-02-20T11:24:33.247Z,4.10
2019-02-20T11:25:44.522Z,4.10
2019-02-20T11:26:55.805Z,4.10
2019-02-20T11:28:07.076Z,4.11
2019-02-20T11:29:18.350Z,4.11
2019-02-20T11:30:29.626Z,4.11
2019-02-20T11:31:40.899Z,4.11
2019-02-20T11:32:52.182Z,4.11
2019-02-20T11:34:03.623Z,4.11
2019-02-20T11:35:14.916Z,4.11
2019-02-20T11:36:26.221Z,4.11
2019-02-20T11:37:37.627Z,4.11
2019-02-20T11:38:48.915Z,4.11
2019-02-20T11:40:00.247Z,4.11
2019-02-20T11:41:13.428Z,4.12
2019-02-20T11:42:23.803Z,4.11
2019-02-20T11:43:35.105Z,4.12
2019-02-20T11:44:46.414Z,4.12
2019-02-20T11:45:57.234Z,4.11
2019-02-20T11:47:08.550Z,4.10
2019-02-20T11:48:19.880Z,4.11
2019-02-20T11:49:31.217Z,4.10
2019-02-20T11:50:42.582Z,4.10
2019-02-20T11:51:53.938Z,4.10
2019-02-20T11:53:05.313Z,4.10
2019-02-20T11:54:16.682Z,4.10
2019-02-20T11:55:28.080Z,4.10
2019-02-20T11:56:39.490Z,4.10
2019-02-20T11:57:50.897Z,4.10
2019-02-20T11:59:03.315Z,4.10
2019-02-20T12:00:14.754Z,4.10
2019-02-20T12:01:27.184Z,4.10
2019-02-20T12:02:38.645Z,4.10
2019-02-20T12:03:50.102Z,4.10
2019-02-20T12:05:01.613Z,4.10
2019-02-20T12:06:13.106Z,4.10
2019-02-20T12:07:24.121Z,4.10
2019-02-20T12:08:35.624Z,4.10
2019-02-20T12:09:47.130Z,4.10
2019-02-20T12:10:59.655Z,4.10
2019-02-20T12:12:11.176Z,4.10
2019-02-20T12:13:22.710Z,4.10
2019-02-20T12:14:34.250Z,4.10
2019-02-20T12:15:45.794Z,4.10
2019-02-20T12:16:57.403Z,4.10
2019-02-20T12:18:17.007Z,4.10
2019-02-20T12:19:20.945Z,4.10
2019-02-20T12:20:32.512Z,4.10
2019-02-20T12:21:44.072Z,4.10
2019-02-20T12:22:55.650Z,4.10
2019-02-20T12:24:07.226Z,4.10
2019-02-20T12:25:18.792Z,4.10
2019-02-20T12:26:35.187Z,4.10
2019-02-20T12:27:42.957Z,4.10
2019-02-20T12:28:54.565Z,4.10
2019-02-20T12:30:06.170Z,4.10
2019-02-20T12:31:17.803Z,4.10
2019-02-20T12:32:30.909Z,4.10
2019-02-20T12:33:41.084Z,4.10
2019-02-20T12:34:52.734Z,4.10
2019-02-20T12:36:04.386Z,4.10
2019-02-20T12:37:16.028Z,4.10
2019-02-20T12:38:27.670Z,4.10
2019-02-20T12:39:39.328Z,4.10
2019-02-20T12:40:51.039Z,4.10
2019-02-20T12:42:03.656Z,4.10
2019-02-20T12:43:15.315Z,4.10
2019-02-20T12:44:26.991Z,4.10
2019-02-20T12:45:38.665Z,4.10
2019-02-20T12:46:50.340Z,4.10
2019-02-20T12:48:02.018Z,4.10
2019-02-20T12:49:13.682Z,4.10
2019-02-20T12:50:24.863Z,4.10
2019-02-20T12:51:36.538Z,4.10
2019-02-20T12:52:48.213Z,4.10
2019-02-20T12:53:59.911Z,4.10
2019-02-20T12:55:11.623Z,4.10
2019-02-20T12:56:23.292Z,4.10
2019-02-20T12:57:35.263Z,4.10
2019-02-20T12:58:46.942Z,4.10
2019-02-20T12:59:58.898Z,4.10
2019-02-20T13:01:10.561Z,4.10
2019-02-20T13:02:22.205Z,4.10
2019-02-20T13:03:33.852Z,4.10
2019-02-20T13:04:45.615Z,4.10
2019-02-20T13:05:57.240Z,4.10
2019-02-20T13:07:08.885Z,4.10
2019-02-20T13:08:20.501Z,4.10
2019-02-20T13:09:32.124Z,4.10
2019-02-20T13:10:43.730Z,4.10
2019-02-20T13:11:55.337Z,4.10
2019-02-20T13:13:06.947Z,4.10
2019-02-20T13:14:18.548Z,4.10
2019-02-20T13:15:30.140Z,4.10
2019-02-20T13:16:41.728Z,4.10
2019-02-20T13:17:53.316Z,4.10
2019-02-20T13:19:04.897Z,4.10
2019-02-20T13:20:16.476Z,4.10
2019-02-20T13:21:28.046Z,4.10
2019-02-20T13:22:39.640Z,4.10
2019-02-20T13:23:51.227Z,4.10
2019-02-20T13:25:04.127Z,4.10
2019-02-20T13:26:14.372Z,4.10
2019-02-20T13:27:25.953Z,4.10
2019-02-20T13:28:37.618Z,4.10
2019-02-20T13:29:49.174Z,4.10
2019-02-20T13:31:00.741Z,4.10
2019-02-20T13:32:13.291Z,4.10
2019-02-20T13:33:24.851Z,4.10
2019-02-20T13:34:36.394Z,4.10
2019-02-20T13:35:47.931Z,4.10
2019-02-20T13:36:59.622Z,4.10
2019-02-20T13:38:11.147Z,4.10
2019-02-20T13:39:22.685Z,4.10
2019-02-20T13:40:34.215Z,4.10
2019-02-20T13:41:45.761Z,4.11
2019-02-20T13:42:57.290Z,4.10
2019-02-20T13:44:08.824Z,4.10
2019-02-20T13:45:20.343Z,4.11
2019-02-20T13:46:31.874Z,4.11
2019-02-20T13:47:43.392Z,4.11
2019-02-20T13:48:54.935Z,4.11
2019-02-20T13:50:06.450Z,4.11
2019-02-20T13:51:17.989Z,4.11
2019-02-20T13:52:30.500Z,4.10
2019-02-20T13:53:46.507Z,4.11
2019-02-20T13:54:52.664Z,4.11
2019-02-20T13:56:04.174Z,4.11
2019-02-20T13:57:15.688Z,4.11
2019-02-20T13:58:27.225Z,4.11
2019-02-20T13:59:38.743Z,4.11
2019-02-20T14:00:50.252Z,4.11
2019-02-20T14:02:01.750Z,4.11
2019-02-20T14:03:13.754Z,4.11
2019-02-20T14:04:25.267Z,4.11
2019-02-20T14:05:36.771Z,4.11
2019-02-20T14:06:48.271Z,4.11
2019-02-20T14:07:59.781Z,4.11
2019-02-20T14:09:11.295Z,4.11
2019-02-20T14:10:22.812Z,4.11
2019-02-20T14:11:34.328Z,4.11
2019-02-20T14:12:45.843Z,4.11
2019-02-20T14:13:57.360Z,4.11
2019-02-20T14:15:08.870Z,4.11
2019-02-20T14:16:20.393Z,4.11
2019-02-20T14:17:31.911Z,4.11
2019-02-20T14:18:43.421Z,4.11
2019-02-20T14:19:54.944Z,4.11
2019-02-20T14:21:06.446Z,4.11
2019-02-20T14:22:17.951Z,4.11
2019-02-20T14:23:29.799Z,4.11
2019-02-20T14:24:42.119Z,4.11
2019-02-20T14:25:53.625Z,4.11
2019-02-20T14:27:10.683Z,4.11
2019-02-20T14:28:16.609Z,4.11
2019-02-20T14:29:29.078Z,4.11
2019-02-20T14:30:40.564Z,4.11
2019-02-20T14:31:52.041Z,4.11
2019-02-20T14:33:03.625Z,4.11
2019-02-20T14:34:15.115Z,4.11
2019-02-20T14:35:26.615Z,4.11
2019-02-20T14:36:38.093Z,4.12
2019-02-20T14:37:49.622Z,4.12
2019-02-20T14:39:01.081Z,4.12
2019-02-20T14:40:12.552Z,4.12
2019-02-20T14:41:24.849Z,4.12
2019-02-20T14:42:36.399Z,4.12
2019-02-20T14:43:47.762Z,4.12
2019-02-20T14:44:59.216Z,4.12
2019-02-20T14:46:10.673Z,4.12
2019-02-20T14:47:22.116Z,4.12
2019-02-20T14:48:33.612Z,4.12
2019-02-20T14:49:45.052Z,4.12
2019-02-20T14:50:56.507Z,4.12
2019-02-20T14:52:07.941Z,4.12
2019-02-20T14:53:19.376Z,4.12
2019-02-20T14:54:30.823Z,4.12
2019-02-20T14:55:42.269Z,4.12
2019-02-20T14:56:53.708Z,4.12
2019-02-20T14:58:05.144Z,4.12
2019-02-20T14:59:16.577Z,4.12
2019-02-20T15:00:29.000Z,4.12
2019-02-20T15:01:40.441Z,4.12
2019-02-20T15:02:51.851Z,4.12
2019-02-20T15:04:03.274Z,4.12
2019-02-20T15:05:14.690Z,4.12
2019-02-20T15:06:26.141Z,4.12
2019-02-20T15:07:37.618Z,4.12
2019-02-20T15:08:49.044Z,4.12
2019-02-20T15:10:00.453Z,4.12
2019-02-20T15:11:11.856Z,4.12
2019-02-20T15:12:23.284Z,4.12
2019-02-20T15:13:34.698Z,4.12
2019-02-20T15:14:47.592Z,4.12
2019-02-20T15:15:57.506Z,4.12
2019-02-20T15:17:08.912Z,4.12
2019-02-20T15:18:20.348Z,4.12
2019-02-20T15:19:31.726Z,4.12
2019-02-20T15:20:43.129Z,4.11
2019-02-20T15:21:54.514Z,4.12
2019-02-20T15:23:05.911Z,4.12
2019-02-20T15:24:17.319Z,4.12
2019-02-20T15:25:28.717Z,4.11
2019-02-20T15:26:40.111Z,4.11
2019-02-20T15:27:51.629Z,4.11
2019-02-20T15:29:03.010Z,4.11
2019-02-20T15:30:14.390Z,4.12
2019-02-20T15:31:33.534Z,4.11
2019-02-20T15:32:37.180Z,4.11
2019-02-20T15:33:48.556Z,4.11
2019-02-20T15:34:59.931Z,4.11
2019-02-20T15:36:11.305Z,4.11
2019-02-20T15:37:22.693Z,4.11
2019-02-20T15:38:34.074Z,4.11
2019-02-20T15:39:46.445Z,4.11
2019-02-20T15:40:57.826Z,4.11
2019-02-20T15:42:09.198Z,4.11
2019-02-20T15:43:20.583Z,4.11
2019-02-20T15:44:31.959Z,4.11
2019-02-20T15:45:43.327Z,4.11
2019-02-20T15:46:54.690Z,4.11
2019-02-20T15:48:06.068Z,4.11